sensor_id;sensor_type;location;lat;lon;timestamp;P1;durP1;ratioP1;P2;durP2;ratioP2
49440;SDS011;35317;51.978;6.296;2022-09-28T00:03:54;21.08;;;13.05;;
49440;SDS011;35317;51.978;6.296;2022-09-28T00:08:58;20.50;;;13.88;;
49440;SDS011;35317;51.978;6.296;2022-09-28T00:14:01;20.40;;;14.95;;
49440;SDS011;35317;51.978;6.296;2022-09-28T00:19:02;23.48;;;15.77;;
49440;SDS011;35317;51.978;6.296;2022-09-28T00:24:05;26.45;;;16.15;;
49440;SDS011;35317;51.978;6.296;2022-09-28T00:29:23;26.42;;;16.33;;
49440;SDS011;35317;51.978;6.296;2022-09-28T00:34:34;27.13;;;16.85;;
49440;SDS011;35317;51.978;6.296;2022-09-28T00:39:37;30.23;;;18.85;;
49440;SDS011;35317;51.978;6.296;2022-09-28T00:44:52;26.25;;;16.95;;
49440;SDS011;35317;51.978;6.296;2022-09-28T00:55:07;27.75;;;17.60;;
49440;SDS011;35317;51.978;6.296;2022-09-28T01:00:13;32.20;;;19.50;;
49440;SDS011;35317;51.978;6.296;2022-09-28T01:05:14;29.38;;;19.17;;
49440;SDS011;35317;51.978;6.296;2022-09-28T01:10:16;29.85;;;20.05;;
49440;SDS011;35317;51.978;6.296;2022-09-28T01:15:17;30.27;;;18.33;;
49440;SDS011;35317;51.978;6.296;2022-09-28T01:25:52;26.27;;;18.30;;
49440;SDS011;35317;51.978;6.296;2022-09-28T01:31:17;27.45;;;18.45;;
49440;SDS011;35317;51.978;6.296;2022-09-28T01:41:43;25.52;;;18.02;;
49440;SDS011;35317;51.978;6.296;2022-09-28T01:46:50;30.15;;;19.02;;
49440;SDS011;35317;51.978;6.296;2022-09-28T01:51:54;26.20;;;17.87;;
49440;SDS011;35317;51.978;6.296;2022-09-28T02:02:24;30.33;;;18.23;;
49440;SDS011;35317;51.978;6.296;2022-09-28T02:07:37;31.25;;;19.70;;
49440;SDS011;35317;51.978;6.296;2022-09-28T02:12:54;32.90;;;19.45;;
49440;SDS011;35317;51.978;6.296;2022-09-28T02:18:13;30.20;;;19.83;;
49440;SDS011;35317;51.978;6.296;2022-09-28T02:23:14;34.65;;;20.25;;
49440;SDS011;35317;51.978;6.296;2022-09-28T02:28:16;34.60;;;20.90;;
49440;SDS011;35317;51.978;6.296;2022-09-28T02:33:19;36.38;;;22.15;;
49440;SDS011;35317;51.978;6.296;2022-09-28T02:38:32;29.05;;;20.45;;
49440;SDS011;35317;51.978;6.296;2022-09-28T03:00:19;32.17;;;19.85;;
49440;SDS011;35317;51.978;6.296;2022-09-28T03:05:24;34.67;;;19.73;;
49440;SDS011;35317;51.978;6.296;2022-09-28T03:10:47;28.75;;;19.40;;
49440;SDS011;35317;51.978;6.296;2022-09-28T03:16:14;33.22;;;21.17;;
49440;SDS011;35317;51.978;6.296;2022-09-28T03:21:17;32.25;;;20.17;;
49440;SDS011;35317;51.978;6.296;2022-09-28T03:26:18;36.03;;;22.27;;
49440;SDS011;35317;51.978;6.296;2022-09-28T03:31:19;40.90;;;22.10;;
49440;SDS011;35317;51.978;6.296;2022-09-28T03:36:20;36.38;;;22.55;;
49440;SDS011;35317;51.978;6.296;2022-09-28T03:41:22;34.83;;;23.08;;
49440;SDS011;35317;51.978;6.296;2022-09-28T03:46:23;37.85;;;23.55;;
49440;SDS011;35317;51.978;6.296;2022-09-28T03:51:24;45.67;;;27.23;;
49440;SDS011;35317;51.978;6.296;2022-09-28T03:56:25;38.28;;;24.67;;
49440;SDS011;35317;51.978;6.296;2022-09-28T04:01:26;41.20;;;24.88;;
49440;SDS011;35317;51.978;6.296;2022-09-28T04:06:27;39.42;;;25.60;;
49440;SDS011;35317;51.978;6.296;2022-09-28T04:11:27;36.47;;;25.35;;
49440;SDS011;35317;51.978;6.296;2022-09-28T04:16:28;32.45;;;22.33;;
49440;SDS011;35317;51.978;6.296;2022-09-28T04:21:29;34.17;;;22.38;;
49440;SDS011;35317;51.978;6.296;2022-09-28T04:26:29;33.45;;;22.60;;
49440;SDS011;35317;51.978;6.296;2022-09-28T04:31:36;39.53;;;24.48;;
49440;SDS011;35317;51.978;6.296;2022-09-28T04:36:43;37.03;;;23.02;;
49440;SDS011;35317;51.978;6.296;2022-09-28T04:41:46;38.22;;;23.77;;
49440;SDS011;35317;51.978;6.296;2022-09-28T04:46:47;35.55;;;24.08;;
49440;SDS011;35317;51.978;6.296;2022-09-28T04:51:48;41.72;;;25.45;;
49440;SDS011;35317;51.978;6.296;2022-09-28T04:56:49;39.45;;;24.92;;
49440;SDS011;35317;51.978;6.296;2022-09-28T05:01:51;40.25;;;25.45;;
49440;SDS011;35317;51.978;6.296;2022-09-28T05:06:53;44.20;;;25.08;;
49440;SDS011;35317;51.978;6.296;2022-09-28T05:11:53;46.58;;;27.08;;
49440;SDS011;35317;51.978;6.296;2022-09-28T05:16:54;49.20;;;27.00;;
49440;SDS011;35317;51.978;6.296;2022-09-28T05:21:59;40.97;;;26.30;;
49440;SDS011;35317;51.978;6.296;2022-09-28T05:27:03;39.40;;;23.90;;
49440;SDS011;35317;51.978;6.296;2022-09-28T05:32:04;44.67;;;27.27;;
49440;SDS011;35317;51.978;6.296;2022-09-28T05:37:05;44.50;;;24.85;;
49440;SDS011;35317;51.978;6.296;2022-09-28T05:42:05;42.00;;;25.38;;
49440;SDS011;35317;51.978;6.296;2022-09-28T05:47:06;38.83;;;24.73;;
49440;SDS011;35317;51.978;6.296;2022-09-28T05:52:07;43.92;;;26.10;;
49440;SDS011;35317;51.978;6.296;2022-09-28T05:57:08;41.30;;;24.65;;
49440;SDS011;35317;51.978;6.296;2022-09-28T06:02:09;42.55;;;25.70;;
49440;SDS011;35317;51.978;6.296;2022-09-28T06:07:10;43.92;;;25.50;;
49440;SDS011;35317;51.978;6.296;2022-09-28T06:12:11;41.22;;;23.48;;
49440;SDS011;35317;51.978;6.296;2022-09-28T06:17:12;37.22;;;23.23;;
49440;SDS011;35317;51.978;6.296;2022-09-28T06:22:13;44.30;;;24.90;;
49440;SDS011;35317;51.978;6.296;2022-09-28T06:27:13;44.28;;;24.23;;
49440;SDS011;35317;51.978;6.296;2022-09-28T06:32:14;44.85;;;25.30;;
49440;SDS011;35317;51.978;6.296;2022-09-28T06:37:15;42.95;;;24.98;;
49440;SDS011;35317;51.978;6.296;2022-09-28T06:42:16;39.47;;;24.70;;
49440;SDS011;35317;51.978;6.296;2022-09-28T06:47:17;44.22;;;24.10;;
49440;SDS011;35317;51.978;6.296;2022-09-28T06:52:18;46.10;;;25.88;;
49440;SDS011;35317;51.978;6.296;2022-09-28T06:57:19;47.30;;;24.40;;
49440;SDS011;35317;51.978;6.296;2022-09-28T07:02:19;42.00;;;22.85;;
49440;SDS011;35317;51.978;6.296;2022-09-28T07:07:21;37.03;;;21.00;;
49440;SDS011;35317;51.978;6.296;2022-09-28T07:12:22;33.22;;;20.70;;
49440;SDS011;35317;51.978;6.296;2022-09-28T07:17:25;26.15;;;17.30;;
49440;SDS011;35317;51.978;6.296;2022-09-28T07:22:25;23.95;;;15.52;;
49440;SDS011;35317;51.978;6.296;2022-09-28T07:27:27;23.85;;;14.82;;
49440;SDS011;35317;51.978;6.296;2022-09-28T07:32:27;21.60;;;15.30;;
49440;SDS011;35317;51.978;6.296;2022-09-28T07:37:28;24.27;;;15.95;;
49440;SDS011;35317;51.978;6.296;2022-09-28T07:42:29;19.40;;;14.10;;
49440;SDS011;35317;51.978;6.296;2022-09-28T07:47:30;17.33;;;13.00;;
49440;SDS011;35317;51.978;6.296;2022-09-28T07:52:30;20.48;;;13.13;;
49440;SDS011;35317;51.978;6.296;2022-09-28T07:57:34;20.83;;;13.95;;
49440;SDS011;35317;51.978;6.296;2022-09-28T08:02:36;16.83;;;12.75;;
49440;SDS011;35317;51.978;6.296;2022-09-28T08:07:37;13.48;;;11.25;;
49440;SDS011;35317;51.978;6.296;2022-09-28T08:12:38;17.33;;;10.85;;
49440;SDS011;35317;51.978;6.296;2022-09-28T08:17:44;14.00;;;10.38;;
49440;SDS011;35317;51.978;6.296;2022-09-28T08:22:46;16.38;;;10.85;;
49440;SDS011;35317;51.978;6.296;2022-09-28T08:27:47;14.63;;;10.38;;
49440;SDS011;35317;51.978;6.296;2022-09-28T08:32:48;12.38;;;9.40;;
49440;SDS011;35317;51.978;6.296;2022-09-28T08:37:49;11.77;;;9.32;;
49440;SDS011;35317;51.978;6.296;2022-09-28T08:42:54;8.25;;;6.68;;
49440;SDS011;35317;51.978;6.296;2022-09-28T08:48:03;9.32;;;6.00;;
49440;SDS011;35317;51.978;6.296;2022-09-28T08:59:10;8.25;;;6.47;;
49440;SDS011;35317;51.978;6.296;2022-09-28T09:04:18;5.53;;;4.50;;
49440;SDS011;35317;51.978;6.296;2022-09-28T09:09:26;6.72;;;3.67;;
49440;SDS011;35317;51.978;6.296;2022-09-28T09:25:50;5.88;;;2.33;;
49440;SDS011;35317;51.978;6.296;2022-09-28T09:31:07;4.90;;;1.90;;
49440;SDS011;35317;51.978;6.296;2022-09-28T09:36:29;4.68;;;1.80;;
49440;SDS011;35317;51.978;6.296;2022-09-28T09:53:22;2.67;;;1.35;;
49440;SDS011;35317;51.978;6.296;2022-09-28T09:58:34;2.90;;;1.23;;
49440;SDS011;35317;51.978;6.296;2022-09-28T10:03:42;2.45;;;1.20;;
49440;SDS011;35317;51.978;6.296;2022-09-28T10:08:47;1.70;;;1.17;;
49440;SDS011;35317;51.978;6.296;2022-09-28T10:14:02;2.00;;;0.80;;
49440;SDS011;35317;51.978;6.296;2022-09-28T10:19:03;1.33;;;0.82;;
49440;SDS011;35317;51.978;6.296;2022-09-28T10:24:03;3.08;;;1.00;;
49440;SDS011;35317;51.978;6.296;2022-09-28T10:29:18;3.90;;;0.70;;
49440;SDS011;35317;51.978;6.296;2022-09-28T10:34:27;3.25;;;0.80;;
49440;SDS011;35317;51.978;6.296;2022-09-28T10:39:32;1.58;;;0.90;;
49440;SDS011;35317;51.978;6.296;2022-09-28T10:44:55;2.25;;;0.80;;
49440;SDS011;35317;51.978;6.296;2022-09-28T10:50:00;1.83;;;1.33;;
49440;SDS011;35317;51.978;6.296;2022-09-28T11:00:31;1.52;;;0.50;;
49440;SDS011;35317;51.978;6.296;2022-09-28T11:05:40;0.95;;;0.60;;
49440;SDS011;35317;51.978;6.296;2022-09-28T11:10:42;0.52;;;0.40;;
49440;SDS011;35317;51.978;6.296;2022-09-28T11:15:43;1.15;;;0.50;;
49440;SDS011;35317;51.978;6.296;2022-09-28T11:20:45;3.03;;;0.85;;
49440;SDS011;35317;51.978;6.296;2022-09-28T11:25:59;1.38;;;0.60;;
49440;SDS011;35317;51.978;6.296;2022-09-28T11:31:08;3.22;;;0.65;;
49440;SDS011;35317;51.978;6.296;2022-09-28T11:52:13;3.88;;;0.80;;
49440;SDS011;35317;51.978;6.296;2022-09-28T11:57:28;2.25;;;1.00;;
49440;SDS011;35317;51.978;6.296;2022-09-28T12:02:36;2.70;;;0.70;;
49440;SDS011;35317;51.978;6.296;2022-09-28T12:07:52;2.00;;;1.27;;
49440;SDS011;35317;51.978;6.296;2022-09-28T12:13:04;1.63;;;0.47;;
49440;SDS011;35317;51.978;6.296;2022-09-28T12:18:59;0.70;;;0.50;;
49440;SDS011;35317;51.978;6.296;2022-09-28T12:23:43;1.02;;;0.52;;
49440;SDS011;35317;51.978;6.296;2022-09-28T12:28:49;1.30;;;0.43;;
49440;SDS011;35317;51.978;6.296;2022-09-28T12:33:56;0.93;;;0.60;;
49440;SDS011;35317;51.978;6.296;2022-09-28T12:44:51;0.63;;;0.40;;
49440;SDS011;35317;51.978;6.296;2022-09-28T13:27:32;0.88;;;0.43;;
49440;SDS011;35317;51.978;6.296;2022-09-28T13:32:37;0.63;;;0.40;;
49440;SDS011;35317;51.978;6.296;2022-09-28T13:37:38;1.10;;;0.38;;
49440;SDS011;35317;51.978;6.296;2022-09-28T13:58:16;1.13;;;0.43;;
49440;SDS011;35317;51.978;6.296;2022-09-28T14:14:48;0.45;;;0.20;;
49440;SDS011;35317;51.978;6.296;2022-09-28T14:25:08;1.38;;;0.47;;
49440;SDS011;35317;51.978;6.296;2022-09-28T14:30:22;1.15;;;0.82;;
49440;SDS011;35317;51.978;6.296;2022-09-28T14:35:52;0.68;;;0.30;;
49440;SDS011;35317;51.978;6.296;2022-09-28T14:56:27;2.03;;;0.90;;
49440;SDS011;35317;51.978;6.296;2022-09-28T15:06:45;0.50;;;0.20;;
49440;SDS011;35317;51.978;6.296;2022-09-28T15:11:48;0.35;;;0.35;;
49440;SDS011;35317;51.978;6.296;2022-09-28T15:16:51;1.67;;;0.40;;
49440;SDS011;35317;51.978;6.296;2022-09-28T15:21:51;1.27;;;0.50;;
49440;SDS011;35317;51.978;6.296;2022-09-28T15:26:52;4.57;;;0.68;;
49440;SDS011;35317;51.978;6.296;2022-09-28T15:31:53;4.38;;;1.77;;
49440;SDS011;35317;51.978;6.296;2022-09-28T15:36:54;2.20;;;0.80;;
49440;SDS011;35317;51.978;6.296;2022-09-28T15:41:55;4.25;;;0.90;;
49440;SDS011;35317;51.978;6.296;2022-09-28T15:47:04;1.95;;;0.90;;
49440;SDS011;35317;51.978;6.296;2022-09-28T15:52:25;0.75;;;0.52;;
49440;SDS011;35317;51.978;6.296;2022-09-28T15:57:42;1.98;;;1.25;;
49440;SDS011;35317;51.978;6.296;2022-09-28T16:08:01;3.22;;;1.00;;
49440;SDS011;35317;51.978;6.296;2022-09-28T16:13:22;6.33;;;1.20;;
49440;SDS011;35317;51.978;6.296;2022-09-28T16:18:23;2.28;;;0.90;;
49440;SDS011;35317;51.978;6.296;2022-09-28T16:23:28;4.45;;;1.15;;
49440;SDS011;35317;51.978;6.296;2022-09-28T16:33:39;2.92;;;1.05;;
49440;SDS011;35317;51.978;6.296;2022-09-28T16:38:54;4.28;;;1.85;;
49440;SDS011;35317;51.978;6.296;2022-09-28T16:43:59;5.40;;;2.33;;
49440;SDS011;35317;51.978;6.296;2022-09-28T16:49:01;3.13;;;2.00;;
49440;SDS011;35317;51.978;6.296;2022-09-28T16:54:12;10.35;;;3.00;;
49440;SDS011;35317;51.978;6.296;2022-09-28T16:59:36;4.60;;;1.92;;
49440;SDS011;35317;51.978;6.296;2022-09-28T17:04:37;5.82;;;2.22;;
49440;SDS011;35317;51.978;6.296;2022-09-28T17:09:38;2.83;;;1.52;;
49440;SDS011;35317;51.978;6.296;2022-09-28T17:14:39;6.70;;;2.90;;
49440;SDS011;35317;51.978;6.296;2022-09-28T17:19:44;3.40;;;1.95;;
49440;SDS011;35317;51.978;6.296;2022-09-28T17:24:45;3.75;;;1.70;;
49440;SDS011;35317;51.978;6.296;2022-09-28T17:29:46;2.42;;;1.38;;
49440;SDS011;35317;51.978;6.296;2022-09-28T17:34:47;2.22;;;1.40;;
49440;SDS011;35317;51.978;6.296;2022-09-28T17:39:48;3.88;;;2.47;;
49440;SDS011;35317;51.978;6.296;2022-09-28T17:44:51;3.60;;;2.10;;
49440;SDS011;35317;51.978;6.296;2022-09-28T17:49:52;5.68;;;3.20;;
49440;SDS011;35317;51.978;6.296;2022-09-28T17:54:52;6.95;;;2.80;;
49440;SDS011;35317;51.978;6.296;2022-09-28T17:59:53;6.22;;;2.88;;
49440;SDS011;35317;51.978;6.296;2022-09-28T18:04:54;5.18;;;2.90;;
49440;SDS011;35317;51.978;6.296;2022-09-28T18:09:54;7.82;;;3.30;;
49440;SDS011;35317;51.978;6.296;2022-09-28T18:14:55;5.97;;;2.97;;
49440;SDS011;35317;51.978;6.296;2022-09-28T18:19:59;7.93;;;4.85;;
49440;SDS011;35317;51.978;6.296;2022-09-28T18:25:00;8.23;;;6.28;;
49440;SDS011;35317;51.978;6.296;2022-09-28T18:30:01;8.75;;;5.70;;
49440;SDS011;35317;51.978;6.296;2022-09-28T18:35:04;7.07;;;4.07;;
49440;SDS011;35317;51.978;6.296;2022-09-28T18:40:08;5.75;;;3.67;;
49440;SDS011;35317;51.978;6.296;2022-09-28T18:45:12;6.05;;;4.10;;
49440;SDS011;35317;51.978;6.296;2022-09-28T18:50:13;8.00;;;4.50;;
49440;SDS011;35317;51.978;6.296;2022-09-28T18:55:16;5.77;;;4.47;;
49440;SDS011;35317;51.978;6.296;2022-09-28T19:00:21;10.00;;;4.22;;
49440;SDS011;35317;51.978;6.296;2022-09-28T19:05:21;6.90;;;4.05;;
49440;SDS011;35317;51.978;6.296;2022-09-28T19:10:22;8.90;;;6.47;;
49440;SDS011;35317;51.978;6.296;2022-09-28T19:15:23;7.93;;;5.97;;
49440;SDS011;35317;51.978;6.296;2022-09-28T19:20:24;9.70;;;5.90;;
49440;SDS011;35317;51.978;6.296;2022-09-28T19:25:25;6.85;;;4.97;;
49440;SDS011;35317;51.978;6.296;2022-09-28T19:30:26;9.68;;;6.28;;
49440;SDS011;35317;51.978;6.296;2022-09-28T19:35:26;9.00;;;6.25;;
49440;SDS011;35317;51.978;6.296;2022-09-28T19:40:27;10.90;;;7.03;;
49440;SDS011;35317;51.978;6.296;2022-09-28T19:45:28;8.63;;;6.03;;
49440;SDS011;35317;51.978;6.296;2022-09-28T19:50:30;10.02;;;6.72;;
49440;SDS011;35317;51.978;6.296;2022-09-28T19:55:33;10.32;;;7.05;;
49440;SDS011;35317;51.978;6.296;2022-09-28T20:00:35;7.78;;;6.07;;
49440;SDS011;35317;51.978;6.296;2022-09-28T20:05:36;12.05;;;7.38;;
49440;SDS011;35317;51.978;6.296;2022-09-28T20:10:49;11.10;;;8.57;;
49440;SDS011;35317;51.978;6.296;2022-09-28T20:15:52;14.50;;;10.30;;
49440;SDS011;35317;51.978;6.296;2022-09-28T20:20:59;15.70;;;11.55;;
49440;SDS011;35317;51.978;6.296;2022-09-28T20:26:05;15.98;;;11.10;;
49440;SDS011;35317;51.978;6.296;2022-09-28T20:36:23;17.88;;;13.18;;
49440;SDS011;35317;51.978;6.296;2022-09-28T20:41:24;18.40;;;13.10;;
49440;SDS011;35317;51.978;6.296;2022-09-28T20:46:26;22.15;;;12.80;;
49440;SDS011;35317;51.978;6.296;2022-09-28T20:51:27;15.48;;;12.35;;
49440;SDS011;35317;51.978;6.296;2022-09-28T20:56:30;17.27;;;12.77;;
49440;SDS011;35317;51.978;6.296;2022-09-28T21:01:36;16.25;;;11.98;;
49440;SDS011;35317;51.978;6.296;2022-09-28T21:06:38;20.15;;;15.80;;
49440;SDS011;35317;51.978;6.296;2022-09-28T21:11:40;21.33;;;15.13;;
49440;SDS011;35317;51.978;6.296;2022-09-28T21:16:44;19.43;;;14.53;;
49440;SDS011;35317;51.978;6.296;2022-09-28T21:21:45;19.77;;;13.80;;
49440;SDS011;35317;51.978;6.296;2022-09-28T21:26:46;23.15;;;16.40;;
49440;SDS011;35317;51.978;6.296;2022-09-28T21:31:46;19.15;;;15.90;;
49440;SDS011;35317;51.978;6.296;2022-09-28T21:36:47;21.48;;;13.85;;
49440;SDS011;35317;51.978;6.296;2022-09-28T21:41:51;20.17;;;15.15;;
49440;SDS011;35317;51.978;6.296;2022-09-28T21:46:52;25.33;;;17.03;;
49440;SDS011;35317;51.978;6.296;2022-09-28T21:51:53;21.98;;;15.77;;
49440;SDS011;35317;51.978;6.296;2022-09-28T21:56:53;24.30;;;16.80;;
49440;SDS011;35317;51.978;6.296;2022-09-28T22:01:54;27.45;;;19.63;;
49440;SDS011;35317;51.978;6.296;2022-09-28T22:06:55;26.23;;;16.77;;
49440;SDS011;35317;51.978;6.296;2022-09-28T22:11:56;19.92;;;15.23;;
49440;SDS011;35317;51.978;6.296;2022-09-28T22:16:56;21.85;;;16.02;;
49440;SDS011;35317;51.978;6.296;2022-09-28T22:21:57;22.05;;;14.77;;
49440;SDS011;35317;51.978;6.296;2022-09-28T22:26:58;23.40;;;17.10;;
49440;SDS011;35317;51.978;6.296;2022-09-28T22:31:58;21.23;;;16.25;;
49440;SDS011;35317;51.978;6.296;2022-09-28T22:37:01;19.58;;;15.10;;
49440;SDS011;35317;51.978;6.296;2022-09-28T22:42:02;19.95;;;15.48;;
49440;SDS011;35317;51.978;6.296;2022-09-28T22:47:02;19.67;;;14.60;;
49440;SDS011;35317;51.978;6.296;2022-09-28T22:52:03;18.27;;;13.68;;
49440;SDS011;35317;51.978;6.296;2022-09-28T22:57:04;19.17;;;14.80;;
49440;SDS011;35317;51.978;6.296;2022-09-28T23:02:05;18.05;;;14.10;;
49440;SDS011;35317;51.978;6.296;2022-09-28T23:07:05;21.90;;;16.73;;
49440;SDS011;35317;51.978;6.296;2022-09-28T23:12:06;23.77;;;15.88;;
49440;SDS011;35317;51.978;6.296;2022-09-28T23:17:07;25.02;;;17.45;;
49440;SDS011;35317;51.978;6.296;2022-09-28T23:22:08;32.30;;;21.98;;
49440;SDS011;35317;51.978;6.296;2022-09-28T23:27:08;29.73;;;20.80;;
49440;SDS011;35317;51.978;6.296;2022-09-28T23:32:09;39.20;;;25.23;;
49440;SDS011;35317;51.978;6.296;2022-09-28T23:37:10;32.78;;;20.58;;
49440;SDS011;35317;51.978;6.296;2022-09-28T23:42:10;29.75;;;20.15;;
49440;SDS011;35317;51.978;6.296;2022-09-28T23:47:11;33.60;;;23.05;;
49440;SDS011;35317;51.978;6.296;2022-09-28T23:52:12;34.10;;;22.42;;
49440;SDS011;35317;51.978;6.296;2022-09-28T23:57:12;39.65;;;24.65;;
